Time;durP1;ratioP1;P1;durP2;ratioP2;P2;SDS_P1;SDS_P2;PMS_P1;PMS_P2;Temp;Humidity;BMP_temperature;BMP_pressure;BME280_temperature;BME280_humidity;BME280_pressure;Samples;Min_cycle;Max_cycle;Signal;HPM_P1;HPM_P2
2021/12/19 00:00:09;;;;;;;;;;;;;;;8.46;74.30;103608.38;5050367;28;19925;-61
2021/12/19 00:02:46;;;;;;;;;;;;;;;8.45;74.48;103602.97;5047813;28;19916;-60
2021/12/19 00:10:21;;;;;;;;;;;;;;;8.44;74.75;103601.25;5050961;28;20494;-59
2021/12/19 00:12:46;;;;;;;;;;;;;;;8.45;74.50;103600.22;5045993;28;19995;-60
2021/12/19 00:15:11;;;;;;;;;;;;;;;8.43;74.95;103594.00;5057724;28;19956;-60
2021/12/19 00:17:36;;;;;;;;;;;;;;;8.43;74.38;103591.22;5039375;28;20269;-60
2021/12/19 00:20:02;;;;;;;;;;;;;;;8.42;74.51;103583.97;5052363;28;20014;-60
2021/12/19 00:22:28;;;;;;;;;;;;;;;8.41;74.45;103587.75;5050356;28;19924;-60
2021/12/19 00:24:53;;;;;;;;;;;;;;;8.40;74.13;103581.34;5051260;28;20390;-60
2021/12/19 00:27:18;;;;;;;;;;;;;;;8.40;74.68;103586.91;5052416;28;19924;-58
2021/12/19 00:29:43;;;;;;;;;;;;;;;8.40;74.49;103578.59;5054074;28;20402;-59
2021/12/19 00:32:08;;;;;;;;;;;;;;;8.41;74.70;103583.13;5052226;28;19921;-60
2021/12/19 00:34:33;;;;;;;;;;;;;;;8.41;74.15;103580.34;5049053;28;20415;-60
2021/12/19 00:36:59;;;;;;;;;;;;;;;8.40;74.27;103573.06;5053484;28;20337;-59
2021/12/19 00:39:24;;;;;;;;;;;;;;;8.41;74.70;103569.28;5055141;28;19932;-60
2021/12/19 00:41:52;;;;;;;;;;;;;;;8.39;74.59;103578.78;5055221;28;20344;-60
2021/12/19 00:44:22;;;;;;;;;;;;;;;8.40;74.35;103578.59;5052433;28;19923;-59
2021/12/19 00:46:52;;;;;;;;;;;;;;;8.41;74.73;103574.81;5054069;28;19974;-59
2021/12/19 00:49:18;;;;;;;;;;;;;;;8.41;74.32;103569.28;5052369;28;19920;-60
2021/12/19 00:51:44;;;;;;;;;;;;;;;8.42;75.00;103576.53;5044035;28;20024;-60
2021/12/19 00:54:09;;;;;;;;;;;;;;;8.42;74.92;103571.00;5051343;28;19913;-60
2021/12/19 00:56:39;;;;;;;;;;;;;;;8.42;74.53;103568.22;5053148;28;19971;-60
2021/12/19 00:59:05;;;;;;;;;;;;;;;8.41;74.43;103569.28;5054008;28;19921;-59
2021/12/19 01:01:30;;;;;;;;;;;;;;;8.43;74.74;103567.19;5054283;28;20356;-60
2021/12/19 01:03:56;;;;;;;;;;;;;;;8.42;74.64;103571.00;5051679;28;20007;-59
2021/12/19 01:06:21;;;;;;;;;;;;;;;8.43;75.08;103569.94;5053311;28;20011;-60
2021/12/19 01:08:47;;;;;;;;;;;;;;;8.42;74.75;103561.84;5047899;28;19970;-60
2021/12/19 01:11:18;;;;;;;;;;;;;;;8.41;75.02;103563.75;5036354;28;20015;-60
2021/12/19 01:13:43;;;;;;;;;;;;;;;8.40;74.86;103564.75;5034488;28;19921;-60
2021/12/19 01:16:09;;;;;;;;;;;;;;;8.41;74.70;103558.22;5041218;28;19986;-60
2021/12/19 01:18:34;;;;;;;;;;;;;;;8.42;74.83;103559.06;5053322;28;19920;-60
2021/12/19 01:20:59;;;;;;;;;;;;;;;8.41;74.74;103558.22;5053382;28;20276;-60
2021/12/19 01:23:24;;;;;;;;;;;;;;;8.39;74.61;103553.88;5053871;28;19921;-60
2021/12/19 01:25:50;;;;;;;;;;;;;;;8.39;74.73;103553.88;5047980;28;20055;-60
2021/12/19 01:28:15;;;;;;;;;;;;;;;8.38;74.06;103554.91;5052552;28;20379;-60
2021/12/19 01:30:40;;;;;;;;;;;;;;;8.37;74.51;103554.06;5053115;28;19987;-60
2021/12/19 01:33:06;;;;;;;;;;;;;;;8.36;74.33;103546.72;5051621;28;19928;-60
2021/12/19 01:35:31;;;;;;;;;;;;;;;8.37;74.49;103551.28;5053911;28;20352;-60
2021/12/19 01:37:57;;;;;;;;;;;;;;;8.36;74.76;103543.97;5053049;28;19943;-60
2021/12/19 01:40:22;;;;;;;;;;;;;;;8.35;74.23;103548.63;5053335;28;20011;-60
2021/12/19 01:42:48;;;;;;;;;;;;;;;8.36;75.10;103543.97;5044815;28;19921;-60
2021/12/19 01:45:23;;;;;;;;;;;;;;;8.35;74.51;103536.72;5042690;28;20361;-60
2021/12/19 01:47:49;;;;;;;;;;;;;;;8.37;74.90;103545.75;5053833;28;20280;-60
2021/12/19 01:50:15;;;;;;;;;;;;;;;8.37;74.52;103545.75;5052506;28;19916;-60
2021/12/19 01:52:40;;;;;;;;;;;;;;;8.36;74.87;103542.06;5053225;28;19920;-60
2021/12/19 01:55:06;;;;;;;;;;;;;;;8.35;74.68;103540.34;5052690;28;19917;-60
2021/12/19 01:57:31;;;;;;;;;;;;;;;8.37;74.17;103537.44;5053458;28;20422;-60
2021/12/19 01:59:56;;;;;;;;;;;;;;;8.36;74.60;103536.53;5049070;28;20400;-60
2021/12/19 02:02:21;;;;;;;;;;;;;;;8.35;74.61;103536.72;5050744;28;20292;-61
2021/12/19 02:04:47;;;;;;;;;;;;;;;8.33;74.82;103531.34;5053456;28;19963;-60
2021/12/19 02:07:13;;;;;;;;;;;;;;;8.33;74.17;103528.59;5052281;28;19928;-60
2021/12/19 02:09:39;;;;;;;;;;;;;;;8.29;74.16;103521.66;5067426;28;19925;-60
2021/12/19 02:12:04;;;;;;;;;;;;;;;8.30;74.71;103522.53;5053243;28;19939;-60
2021/12/19 02:14:30;;;;;;;;;;;;;;;8.30;75.04;103525.31;5052296;28;20395;-60
2021/12/19 02:16:55;;;;;;;;;;;;;;;8.31;74.80;103519.59;5048176;28;19925;-60
2021/12/19 02:19:21;;;;;;;;;;;;;;;8.30;74.13;103526.16;5052080;28;19925;-60
2021/12/19 02:21:47;;;;;;;;;;;;;;;8.29;74.92;103521.66;5052545;28;19920;-60
2021/12/19 02:24:12;;;;;;;;;;;;;;;8.29;74.43;103531.84;5045957;28;19927;-60
2021/12/19 02:26:38;;;;;;;;;;;;;;;8.29;74.74;103520.78;5047622;28;19982;-60
2021/12/19 02:29:04;;;;;;;;;;;;;;;8.27;74.64;103512.66;5052493;28;20334;-61
2021/12/19 02:31:30;;;;;;;;;;;;;;;8.23;74.08;103515.97;5051230;28;19925;-59
2021/12/19 02:34:05;;;;;;;;;;;;;;;8.22;74.28;103509.56;5052926;28;19921;-60
2021/12/19 02:50:24;;;;;;;;;;;;;;;8.22;74.50;103486.56;5044206;28;19940;-60
2021/12/19 02:52:50;;;;;;;;;;;;;;;8.23;74.71;103494.69;5053098;28;19931;-61
2021/12/19 02:55:15;;;;;;;;;;;;;;;8.21;74.69;103491.22;5050126;28;19921;-60
2021/12/19 02:57:41;;;;;;;;;;;;;;;8.23;75.04;103482.75;5043683;28;20027;-60
2021/12/19 03:00:07;;;;;;;;;;;;;;;8.22;74.81;103481.03;5050072;28;19921;-60
2021/12/19 03:02:32;;;;;;;;;;;;;;;8.23;74.68;103485.53;5051426;28;20236;-60
2021/12/19 03:04:59;;;;;;;;;;;;;;;8.23;74.68;103479.97;5051501;28;19927;-61
2021/12/19 03:07:25;;;;;;;;;;;;;;;8.23;74.61;103477.22;5041107;28;19977;-60
2021/12/19 03:10:11;;;;;;;;;;;;;;;8.22;74.53;103473.59;5051521;28;20007;-60
2021/12/19 03:17:59;;;;;;;;;;;;;;;8.21;74.71;103479.28;5052011;28;19927;-60
2021/12/19 03:20:29;;;;;;;;;;;;;;;8.20;74.79;103472.03;5051687;28;19956;-60
2021/12/19 03:22:54;;;;;;;;;;;;;;;8.20;74.90;103469.25;5052670;28;19921;-59
2021/12/19 03:25:19;;;;;;;;;;;;;;;8.21;74.60;103462.69;5050878;28;19925;-60
2021/12/19 03:27:45;;;;;;;;;;;;;;;8.21;74.77;103460.78;5052654;28;19970;-60
2021/12/19 03:30:10;;;;;;;;;;;;;;;8.22;74.45;103458.91;5053060;28;19974;-60
2021/12/19 03:32:35;;;;;;;;;;;;;;;8.21;75.32;103451.59;5041528;28;19921;-60
2021/12/19 03:35:00;;;;;;;;;;;;;;;8.20;74.91;103445.22;5048883;28;19967;-60
2021/12/19 03:37:26;;;;;;;;;;;;;;;8.19;75.20;103440.72;5055921;28;19928;-59
2021/12/19 03:40:08;;;;;;;;;;;;;;;8.20;75.22;103442.44;5054995;28;19924;-60
2021/12/19 03:42:35;;;;;;;;;;;;;;;8.20;75.21;103447.13;5055913;28;19975;-60
2021/12/19 03:45:00;;;;;;;;;;;;;;;8.21;75.30;103443.31;5054493;28;19925;-59
2021/12/19 03:47:25;;;;;;;;;;;;;;;8.19;74.63;103440.72;5054891;28;19928;-59
2021/12/19 03:49:50;;;;;;;;;;;;;;;8.20;75.17;103444.34;5049002;28;19945;-60
2021/12/19 03:52:15;;;;;;;;;;;;;;;8.17;75.12;103436.41;5054837;28;20387;-60
2021/12/19 03:54:40;;;;;;;;;;;;;;;8.14;74.52;103434.00;5055024;28;19962;-60
2021/12/19 03:57:06;;;;;;;;;;;;;;;8.14;75.07;103434.00;5055717;28;19921;-60
2021/12/19 03:59:31;;;;;;;;;;;;;;;8.14;75.38;103426.56;5053578;28;19920;-60
2021/12/19 04:01:57;;;;;;;;;;;;;;;8.13;75.06;103422.03;5055285;28;19921;-60
2021/12/19 04:04:22;;;;;;;;;;;;;;;8.12;74.73;103420.31;5051427;28;19956;-60
2021/12/19 04:06:47;;;;;;;;;;;;;;;8.14;74.86;103425.72;5043182;28;19924;-60
2021/12/19 04:09:12;;;;;;;;;;;;;;;8.14;75.17;103429.34;5055549;28;19994;-60
2021/12/19 04:11:40;;;;;;;;;;;;;;;8.14;74.72;103434.88;5055288;28;20230;-60
2021/12/19 04:14:05;;;;;;;;;;;;;;;8.15;75.08;103419.13;5055114;28;19912;-60
2021/12/19 04:16:31;;;;;;;;;;;;;;;8.16;75.15;103421.72;5053474;28;20011;-60
2021/12/19 04:18:56;;;;;;;;;;;;;;;8.16;74.44;103416.19;5055234;28;19924;-60
2021/12/19 04:21:21;;;;;;;;;;;;;;;8.14;74.46;103415.50;5049832;28;20336;-60
2021/12/19 04:23:47;;;;;;;;;;;;;;;8.15;74.43;103410.81;5042652;28;20347;-60
2021/12/19 04:26:12;;;;;;;;;;;;;;;8.15;74.89;103405.28;5051445;28;20288;-60
2021/12/19 04:28:37;;;;;;;;;;;;;;;8.16;75.12;103398.72;5053485;28;19929;-60
2021/12/19 04:31:03;;;;;;;;;;;;;;;8.16;74.34;103404.25;5054186;28;19920;-60
2021/12/19 04:33:29;;;;;;;;;;;;;;;8.15;74.54;103406.16;5054536;28;19921;-60
2021/12/19 04:36:00;;;;;;;;;;;;;;;8.14;74.73;103392.50;5054480;28;19999;-60
2021/12/19 04:41:26;;;;;;;;;;;;;;;8.09;74.50;103395.78;5043528;28;19920;-60
2021/12/19 04:59:59;;;;;;;;;;;;;;;8.01;74.61;103385.56;5054372;28;20360;-60
2021/12/19 05:02:46;;;;;;;;;;;;;;;8.00;74.50;103374.69;5053395;28;19925;-60
2021/12/19 05:15:55;;;;;;;;;;;;;;;7.96;74.80;103368.66;5054207;28;19967;-59
2021/12/19 05:18:24;;;;;;;;;;;;;;;7.95;74.67;103366.06;5053168;28;19932;-59
2021/12/19 05:21:03;;;;;;;;;;;;;;;7.96;74.55;103371.41;5052816;28;20383;-60
2021/12/19 05:25:56;;;;;;;;;;;;;;;7.96;74.58;103371.41;5052908;28;19913;-60
2021/12/19 05:28:22;;;;;;;;;;;;;;;7.96;74.46;103365.88;5049936;28;20317;-60
2021/12/19 05:30:47;;;;;;;;;;;;;;;7.95;73.96;103369.69;5040044;28;19920;-60
2021/12/19 05:33:12;;;;;;;;;;;;;;;7.95;74.53;103374.38;5052637;28;20296;-60
2021/12/19 05:46:24;;;;;;;;;;;;;;;7.94;74.60;103370.75;5044152;28;19967;-60
2021/12/19 05:48:49;;;;;;;;;;;;;;;7.94;74.67;103364.31;5053373;28;19928;-60
2021/12/19 05:51:14;;;;;;;;;;;;;;;7.93;74.41;103365.38;5052029;28;19923;-60
2021/12/19 05:53:39;;;;;;;;;;;;;;;7.91;74.71;103371.09;5050860;28;19929;-60
2021/12/19 05:56:05;;;;;;;;;;;;;;;7.92;74.17;103369.19;5052689;28;20387;-60
2021/12/19 05:58:30;;;;;;;;;;;;;;;7.90;74.81;103363.84;5052477;28;20360;-60
2021/12/19 06:00:55;;;;;;;;;;;;;;;7.89;74.83;103353.78;5052503;28;19936;-59
2021/12/19 06:03:20;;;;;;;;;;;;;;;7.90;74.95;103354.66;5051178;28;19928;-60
2021/12/19 06:05:45;;;;;;;;;;;;;;;7.87;74.53;103344.81;5052542;28;20602;-60
2021/12/19 06:08:11;;;;;;;;;;;;;;;7.88;74.31;103349.31;5052779;28;20318;-60
2021/12/19 06:10:36;;;;;;;;;;;;;;;7.88;74.86;103346.53;5052874;28;20319;-60
2021/12/19 06:13:01;;;;;;;;;;;;;;;7.86;74.76;103343.09;5051831;28;19971;-60
2021/12/19 06:15:26;;;;;;;;;;;;;;;7.87;74.55;103351.22;5052752;28;19920;-60
2021/12/19 06:17:52;;;;;;;;;;;;;;;7.87;74.13;103347.59;5051768;28;19947;-60
2021/12/19 06:20:18;;;;;;;;;;;;;;;7.87;74.78;103350.34;5046538;28;19920;-60
2021/12/19 06:22:43;;;;;;;;;;;;;;;7.87;74.80;103353.13;5050235;28;19921;-60
2021/12/19 06:25:08;;;;;;;;;;;;;;;7.86;74.45;103346.72;5047942;28;19972;-60
2021/12/19 06:27:34;;;;;;;;;;;;;;;7.85;74.77;103344.13;5049940;28;19934;-60
2021/12/19 06:29:59;;;;;;;;;;;;;;;7.84;75.01;103345.16;5051213;28;20380;-60
2021/12/19 06:32:24;;;;;;;;;;;;;;;7.84;74.76;103345.16;5051416;28;19928;-60
2021/12/19 06:34:49;;;;;;;;;;;;;;;7.84;74.85;103348.78;5051441;28;19956;-60
2021/12/19 06:37:15;;;;;;;;;;;;;;;7.83;74.60;103343.44;5045443;28;20268;-60
2021/12/19 06:39:40;;;;;;;;;;;;;;;7.84;74.86;103337.72;5052622;28;19925;-60
2021/12/19 06:42:06;;;;;;;;;;;;;;;7.82;74.89;103334.28;5051646;28;19921;-60
2021/12/19 06:44:32;;;;;;;;;;;;;;;7.81;74.89;103332.53;5052701;28;20272;-60
2021/12/19 06:46:58;;;;;;;;;;;;;;;7.81;74.70;103337.22;5053110;28;19917;-60
2021/12/19 06:49:23;;;;;;;;;;;;;;;7.80;74.99;103328.06;5051636;28;20383;-60
2021/12/19 06:51:48;;;;;;;;;;;;;;;7.81;74.52;103326.16;5052174;28;20015;-60
2021/12/19 06:54:13;;;;;;;;;;;;;;;7.81;74.75;103318.72;5050282;28;19927;-60
2021/12/19 06:56:38;;;;;;;;;;;;;;;7.82;74.55;103316.81;5050901;28;20357;-60
2021/12/19 06:59:03;;;;;;;;;;;;;;;7.81;74.33;103312.31;5051599;28;19925;-60
2021/12/19 07:01:29;;;;;;;;;;;;;;;7.80;74.84;103299.53;5052283;28;19920;-61
2021/12/19 07:03:54;;;;;;;;;;;;;;;7.80;74.90;103299.53;5051243;28;20265;-60
2021/12/19 07:06:19;;;;;;;;;;;;;;;7.81;74.29;103298.50;5055227;28;19967;-59
2021/12/19 07:08:44;;;;;;;;;;;;;;;7.80;74.54;103300.41;5055765;28;19921;-60
2021/12/19 07:11:09;;;;;;;;;;;;;;;7.82;75.10;103303.88;5037792;28;19928;-59
2021/12/19 07:13:35;;;;;;;;;;;;;;;7.85;74.97;103305.41;5048934;28;19943;-60
2021/12/19 07:16:00;;;;;;;;;;;;;;;7.85;74.49;103297.09;5055515;28;19920;-59
2021/12/19 07:18:25;;;;;;;;;;;;;;;7.84;74.93;103299.00;5055701;28;19921;-59
2021/12/19 07:20:51;;;;;;;;;;;;;;;7.84;74.70;103299.00;5056340;28;19927;-60
2021/12/19 07:23:18;;;;;;;;;;;;;;;7.85;74.74;103297.09;5054718;28;20379;-60
2021/12/19 07:25:44;;;;;;;;;;;;;;;7.86;75.09;103304.38;5053664;28;19921;-59
2021/12/19 07:28:09;;;;;;;;;;;;;;;7.86;74.53;103304.38;5047780;28;20087;-60
2021/12/19 07:30:36;;;;;;;;;;;;;;;7.87;75.19;103300.56;5043869;28;20479;-59
2021/12/19 07:33:03;;;;;;;;;;;;;;;7.88;74.81;103302.28;5056266;28;20337;-60
2021/12/19 07:35:30;;;;;;;;;;;;;;;7.89;74.76;103298.47;5054998;28;19921;-59
2021/12/19 07:37:56;;;;;;;;;;;;;;;7.90;74.58;103297.47;5055163;28;19921;-60
2021/12/19 07:40:23;;;;;;;;;;;;;;;7.91;75.06;103298.31;5053243;28;20007;-59
2021/12/19 07:42:48;;;;;;;;;;;;;;;7.89;74.46;103287.41;5055300;28;19931;-59
2021/12/19 07:45:14;;;;;;;;;;;;;;;7.88;75.47;103286.56;5050477;28;19925;-59
2021/12/19 07:47:40;;;;;;;;;;;;;;;7.88;74.78;103291.22;5053357;28;19924;-59
2021/12/19 07:50:07;;;;;;;;;;;;;;;7.87;74.66;103284.84;5054228;28;19929;-59
2021/12/19 07:52:32;;;;;;;;;;;;;;;7.87;74.79;103281.22;5049718;28;19925;-59
2021/12/19 07:54:57;;;;;;;;;;;;;;;7.87;75.14;103286.75;5051153;28;20228;-60
2021/12/19 07:57:23;;;;;;;;;;;;;;;7.86;74.46;103282.28;5048364;28;19926;-60
2021/12/19 07:59:48;;;;;;;;;;;;;;;7.87;74.78;103270.16;5048798;28;20331;-59
2021/12/19 08:02:13;;;;;;;;;;;;;;;7.87;75.27;103278.47;5049909;28;19964;-59
2021/12/19 08:04:38;;;;;;;;;;;;;;;7.86;75.04;103279.50;5052784;28;20019;-59
2021/12/19 08:07:03;;;;;;;;;;;;;;;7.85;74.87;103270.31;5049367;28;19928;-59
2021/12/19 08:09:37;;;;;;;;;;;;;;;7.85;74.92;103275.84;5042752;28;20410;-59
2021/12/19 08:12:08;;;;;;;;;;;;;;;7.83;74.68;103266.88;5052612;28;19921;-59
2021/12/19 08:14:33;;;;;;;;;;;;;;;7.87;74.63;103270.16;5053271;28;19925;-59
2021/12/19 08:16:58;;;;;;;;;;;;;;;7.88;74.96;103269.13;5051737;28;20296;-59
2021/12/19 08:19:24;;;;;;;;;;;;;;;7.90;75.15;103269.81;5052510;28;20052;-60
2021/12/19 08:21:49;;;;;;;;;;;;;;;7.97;76.18;103267.19;5046777;28;19928;-59
2021/12/19 08:24:14;;;;;;;;;;;;;;;8.04;75.52;103274.59;5051759;28;20031;-60
2021/12/19 08:26:40;;;;;;;;;;;;;;;8.06;75.43;103266.16;5040723;28;19929;-59
2021/12/19 08:29:05;;;;;;;;;;;;;;;8.06;75.41;103268.91;5050553;28;19921;-59
2021/12/19 08:31:34;;;;;;;;;;;;;;;8.04;75.63;103263.53;5053290;28;19928;-59
2021/12/19 08:33:59;;;;;;;;;;;;;;;8.04;75.56;103259.91;5048590;28;19929;-59
2021/12/19 08:36:24;;;;;;;;;;;;;;;8.04;74.84;103266.31;5051461;28;19921;-60
2021/12/19 08:38:50;;;;;;;;;;;;;;;8.03;75.07;103267.34;5053561;28;19925;-59
2021/12/19 08:41:15;;;;;;;;;;;;;;;8.05;75.15;103265.25;5048162;28;19921;-60
2021/12/19 08:43:40;;;;;;;;;;;;;;;8.07;74.97;103265.09;5052833;28;19939;-60
2021/12/19 08:46:08;;;;;;;;;;;;;;;8.06;75.22;103264.25;5053069;28;19921;-59
2021/12/19 08:48:34;;;;;;;;;;;;;;;8.06;75.29;103267.00;5051222;28;20253;-60
2021/12/19 08:50:59;;;;;;;;;;;;;;;8.06;74.80;103269.78;5051377;28;20409;-59
2021/12/19 08:53:24;;;;;;;;;;;;;;;8.05;75.67;103259.72;5053501;28;19924;-60
2021/12/19 08:55:49;;;;;;;;;;;;;;;8.08;74.98;103272.34;5050578;28;20273;-60
2021/12/19 08:58:15;;;;;;;;;;;;;;;8.14;75.49;103259.72;5042254;28;20865;-59
2021/12/19 09:00:40;;;;;;;;;;;;;;;8.15;75.15;103255.91;5050280;28;19924;-59
2021/12/19 09:03:05;;;;;;;;;;;;;;;8.12;75.43;103249.69;5050761;28;19921;-60
2021/12/19 09:05:31;;;;;;;;;;;;;;;8.09;75.61;103252.78;5049750;28;19967;-59
2021/12/19 09:07:56;;;;;;;;;;;;;;;8.09;75.10;103252.78;5048243;28;20011;-59
2021/12/19 09:10:21;;;;;;;;;;;;;;;8.08;75.46;103253.84;5051073;28;19925;-60
2021/12/19 09:12:47;;;;;;;;;;;;;;;8.07;75.12;103248.50;5052768;28;19921;-60
2021/12/19 09:15:13;;;;;;;;;;;;;;;8.07;75.17;103246.59;5053191;28;19921;-59
2021/12/19 09:17:38;;;;;;;;;;;;;;;8.06;75.72;103244.00;5052232;28;19997;-59
2021/12/19 09:20:04;;;;;;;;;;;;;;;8.07;75.47;103248.50;5050561;28;19948;-59
2021/12/19 09:22:29;;;;;;;;;;;;;;;8.07;75.79;103249.34;5048635;28;19927;-60
2021/12/19 09:24:54;;;;;;;;;;;;;;;8.07;74.94;103238.28;5049305;28;20368;-60
2021/12/19 09:27:20;;;;;;;;;;;;;;;8.08;75.20;103244.69;5046556;28;19921;-60
2021/12/19 09:29:45;;;;;;;;;;;;;;;8.07;75.24;103234.66;5044526;28;19925;-60
2021/12/19 09:32:10;;;;;;;;;;;;;;;8.08;75.26;103237.25;5049488;28;19940;-60
2021/12/19 09:34:35;;;;;;;;;;;;;;;8.10;75.78;103234.31;5051235;28;19940;-61
2021/12/19 09:37:01;;;;;;;;;;;;;;;8.12;75.49;103240.53;5052233;28;20640;-61
2021/12/19 09:39:26;;;;;;;;;;;;;;;8.14;75.30;103223.75;5049438;28;19971;-61
2021/12/19 09:41:53;;;;;;;;;;;;;;;8.17;76.27;103234.44;5045733;28;19921;-61
2021/12/19 09:44:18;;;;;;;;;;;;;;;8.18;75.63;103230.66;5051761;28;20376;-61
2021/12/19 09:46:44;;;;;;;;;;;;;;;8.21;75.30;103233.03;5049240;28;19935;-61
2021/12/19 09:49:11;;;;;;;;;;;;;;;8.20;75.12;103234.09;5050989;28;19932;-61
2021/12/19 09:51:36;;;;;;;;;;;;;;;8.20;75.90;103232.19;5051150;28;19921;-61
2021/12/19 09:54:03;;;;;;;;;;;;;;;8.22;75.86;103235.66;5053224;28;20302;-61
2021/12/19 09:56:30;;;;;;;;;;;;;;;8.23;76.06;103233.75;5051276;28;19925;-61
2021/12/19 09:58:55;;;;;;;;;;;;;;;8.22;75.24;103237.56;5033359;28;20293;-61
2021/12/19 10:01:21;;;;;;;;;;;;;;;8.22;75.32;103232.03;5020760;28;19921;-60
2021/12/19 10:03:46;;;;;;;;;;;;;;;8.23;75.43;103231.84;5024448;28;19968;-60
2021/12/19 10:06:11;;;;;;;;;;;;;;;8.25;75.88;103234.41;5024905;28;19963;-58
2021/12/19 10:08:37;;;;;;;;;;;;;;;8.25;75.91;103243.59;5027100;28;19925;-58
2021/12/19 10:11:03;;;;;;;;;;;;;;;8.25;75.22;103226.09;5031844;28;20384;-58
2021/12/19 10:13:32;;;;;;;;;;;;;;;8.26;75.88;103231.47;5025891;28;19968;-58
2021/12/19 10:15:58;;;;;;;;;;;;;;;8.28;75.25;103223.00;5027614;28;19928;-59
2021/12/19 10:18:23;;;;;;;;;;;;;;;8.29;75.65;103210.88;5022743;28;22257;-60
2021/12/19 10:20:57;;;;;;;;;;;;;;;8.29;75.63;103216.41;5026535;28;19921;-61
2021/12/19 10:23:24;;;;;;;;;;;;;;;8.29;75.20;103213.63;5032554;28;19943;-61
2021/12/19 10:25:58;;;;;;;;;;;;;;;8.29;75.41;103208.09;5030316;28;19961;-60
2021/12/19 10:28:24;;;;;;;;;;;;;;;8.29;75.28;103206.22;5019051;28;19924;-60
2021/12/19 10:30:49;;;;;;;;;;;;;;;8.30;74.99;103204.31;5023898;28;19929;-60
2021/12/19 10:33:18;;;;;;;;;;;;;;;8.30;76.07;103201.56;5021870;28;19936;-61
2021/12/19 10:35:50;;;;;;;;;;;;;;;8.31;75.25;103198.59;5024721;28;19928;-62
2021/12/19 10:38:17;;;;;;;;;;;;;;;8.34;75.71;103200.16;5031433;28;20369;-61
2021/12/19 10:40:46;;;;;;;;;;;;;;;8.35;75.90;103193.56;5028477;28;19928;-61
2021/12/19 10:43:16;;;;;;;;;;;;;;;8.34;75.69;103194.59;5031729;28;19936;-61
2021/12/19 10:45:51;;;;;;;;;;;;;;;8.34;75.90;103191.84;5029053;28;19921;-61
2021/12/19 10:48:19;;;;;;;;;;;;;;;8.35;75.53;103191.66;5031381;28;19921;-61
2021/12/19 10:50:49;;;;;;;;;;;;;;;8.36;75.22;103189.75;5033237;28;20316;-61
2021/12/19 10:53:15;;;;;;;;;;;;;;;8.36;75.84;103181.44;5035496;28;19921;-61
2021/12/19 10:55:42;;;;;;;;;;;;;;;8.34;75.67;103186.31;5030905;28;20015;-61
2021/12/19 10:58:19;;;;;;;;;;;;;;;8.34;75.54;103178.88;5035043;28;19935;-60
2021/12/19 11:00:54;;;;;;;;;;;;;;;8.36;75.76;103175.91;5048894;28;20549;-61
2021/12/19 11:03:32;;;;;;;;;;;;;;;8.36;75.49;103184.19;5052310;28;20124;-60
2021/12/19 11:05:59;;;;;;;;;;;;;;;8.35;75.27;103175.03;5051518;28;21327;-61
2021/12/19 11:08:30;;;;;;;;;;;;;;;8.36;75.65;103176.75;5053512;28;20015;-61
2021/12/19 11:10:56;;;;;;;;;;;;;;;8.38;75.25;103167.47;5052923;28;19956;-60
2021/12/19 11:13:21;;;;;;;;;;;;;;;8.38;75.26;103165.56;5053153;28;20017;-61
2021/12/19 11:15:49;;;;;;;;;;;;;;;8.36;75.38;103151.84;5052557;28;19928;-61
2021/12/19 11:18:14;;;;;;;;;;;;;;;8.36;75.26;103143.56;5051587;28;19935;-61
2021/12/19 11:20:40;;;;;;;;;;;;;;;8.39;75.81;103144.28;5049601;28;19924;-61
2021/12/19 11:23:05;;;;;;;;;;;;;;;8.39;75.25;103134.06;5053930;28;21746;-61
2021/12/19 11:25:31;;;;;;;;;;;;;;;8.41;75.46;103131.09;5053528;28;19928;-61
2021/12/19 11:27:56;;;;;;;;;;;;;;;8.41;75.63;103132.00;5052985;28;20368;-61
2021/12/19 11:30:22;;;;;;;;;;;;;;;8.42;75.66;103121.78;5054034;28;19936;-61
2021/12/19 11:33:02;;;;;;;;;;;;;;;8.43;75.40;103124.34;5054505;28;19964;-62
2021/12/19 11:35:31;;;;;;;;;;;;;;;8.44;75.35;103106.69;5052956;28;19925;-62
2021/12/19 11:37:57;;;;;;;;;;;;;;;8.45;75.66;103111.22;5041195;28;20258;-61
2021/12/19 11:40:23;;;;;;;;;;;;;;;8.46;75.91;103106.53;5049325;28;19975;-61
2021/12/19 11:42:49;;;;;;;;;;;;;;;8.44;75.73;103103.94;5052269;28;19924;-62
2021/12/19 11:48:14;;;;;;;;;;;;;;;8.44;75.83;103103.94;5050149;28;20028;-61
2021/12/19 11:50:47;;;;;;;;;;;;;;;8.46;75.94;103101.84;5049731;28;20015;-61
2021/12/19 11:53:12;;;;;;;;;;;;;;;8.47;75.88;103097.19;5053710;28;19916;-61
2021/12/19 11:55:38;;;;;;;;;;;;;;;8.48;75.68;103094.22;5049612;28;19921;-61
2021/12/19 11:58:12;;;;;;;;;;;;;;;8.48;75.17;103096.97;5051773;28;19928;-61
2021/12/19 12:00:50;;;;;;;;;;;;;;;8.50;75.37;103088.50;5045041;28;19931;-60
2021/12/19 12:03:15;;;;;;;;;;;;;;;8.49;75.21;103090.44;5052819;28;19920;-61
2021/12/19 12:05:45;;;;;;;;;;;;;;;8.51;75.65;103082.78;5047996;28;19974;-61
2021/12/19 12:08:11;;;;;;;;;;;;;;;8.51;75.88;103084.69;5052628;28;20394;-61
2021/12/19 12:13:27;;;;;;;;;;;;;;;8.51;75.37;103080.00;5050385;28;19935;-61
2021/12/19 12:16:05;;;;;;;;;;;;;;;8.52;75.70;103076.19;5048602;28;19992;-61
2021/12/19 12:18:33;;;;;;;;;;;;;;;8.53;75.21;103077.06;5046892;28;19932;-61
2021/12/19 12:21:29;;;;;;;;;;;;;;;8.54;75.42;103079.66;5050401;28;19966;-59
2021/12/19 12:23:58;;;;;;;;;;;;;;;8.55;75.35;103064.75;5053636;28;19921;-60
2021/12/19 12:26:24;;;;;;;;;;;;;;;8.54;75.61;103065.81;5050150;28;20384;-61
2021/12/19 12:28:49;;;;;;;;;;;;;;;8.54;75.24;103054.72;5049035;28;19921;-59
2021/12/19 12:31:15;;;;;;;;;;;;;;;8.54;75.28;103059.41;5049087;28;19935;-59
2021/12/19 12:33:40;;;;;;;;;;;;;;;8.54;75.03;103063.03;5052019;28;19947;-60
2021/12/19 12:36:05;;;;;;;;;;;;;;;8.55;75.45;103061.13;5044575;28;19964;-59
2021/12/19 12:38:32;;;;;;;;;;;;;;;8.53;75.46;103057.69;5046245;28;19920;-59
2021/12/19 12:41:05;;;;;;;;;;;;;;;8.52;75.03;103054.03;5050884;28;19929;-59
2021/12/19 12:43:31;;;;;;;;;;;;;;;8.52;75.26;103045.75;5053202;28;19932;-60
2021/12/19 12:45:56;;;;;;;;;;;;;;;8.54;74.93;103048.34;5049655;28;19980;-60
2021/12/19 12:48:45;;;;;;;;;;;;;;;8.53;75.54;103030.88;5044762;28;19925;-60
2021/12/19 12:51:25;;;;;;;;;;;;;;;8.53;75.25;103035.56;5032535;28;19936;-60
2021/12/19 12:53:53;;;;;;;;;;;;;;;8.53;75.23;103030.88;5042270;28;19928;-61
2021/12/19 12:56:21;;;;;;;;;;;;;;;8.53;75.59;103025.34;5051923;28;20470;-60
2021/12/19 12:58:47;;;;;;;;;;;;;;;8.55;75.39;103027.91;5051050;28;19921;-61
2021/12/19 13:01:22;;;;;;;;;;;;;;;8.55;75.52;103039.84;5053320;28;19920;-61
2021/12/19 13:03:53;;;;;;;;;;;;;;;8.56;75.31;103033.25;5040520;28;20012;-60
2021/12/19 13:06:37;;;;;;;;;;;;;;;8.55;75.01;103026.00;5058580;28;19944;-61
2021/12/19 13:09:09;;;;;;;;;;;;;;;8.55;74.92;103023.22;5052613;28;19927;-61
2021/12/19 13:11:35;;;;;;;;;;;;;;;8.56;75.05;103015.78;5044777;28;19921;-60
2021/12/19 13:14:10;;;;;;;;;;;;;;;8.55;75.24;103017.69;5056587;28;20410;-61
2021/12/19 13:17:01;;;;;;;;;;;;;;;8.57;75.22;103012.84;5051217;28;20380;-61
2021/12/19 13:19:34;;;;;;;;;;;;;;;8.59;75.32;103016.28;5040388;28;19966;-61
2021/12/19 13:21:59;;;;;;;;;;;;;;;8.58;74.91;103005.41;5052634;28;20360;-61
2021/12/19 13:24:25;;;;;;;;;;;;;;;8.56;74.66;103008.34;5053176;28;19927;-61
2021/12/19 13:27:05;;;;;;;;;;;;;;;8.57;74.73;103003.69;5051412;28;20023;-61
2021/12/19 13:29:30;;;;;;;;;;;;;;;8.57;74.91;102998.16;5052287;28;19927;-61
2021/12/19 13:32:15;;;;;;;;;;;;;;;8.58;74.80;102994.34;5053177;28;19956;-59
2021/12/19 13:34:40;;;;;;;;;;;;;;;8.57;75.37;102993.47;5049035;28;20445;-61
2021/12/19 13:37:05;;;;;;;;;;;;;;;8.57;74.66;102995.38;5043645;28;20386;-61
2021/12/19 13:39:30;;;;;;;;;;;;;;;8.56;75.17;102988.97;5053421;28;19943;-61
2021/12/19 13:42:04;;;;;;;;;;;;;;;8.56;75.03;102980.66;5050929;28;19960;-60
2021/12/19 13:44:30;;;;;;;;;;;;;;;8.57;75.23;102982.41;5050344;28;19974;-60
2021/12/19 13:46:56;;;;;;;;;;;;;;;8.59;74.50;102982.19;5052230;28;20360;-60
2021/12/19 13:49:21;;;;;;;;;;;;;;;8.58;74.88;102984.13;5051259;28;20015;-60
2021/12/19 13:51:46;;;;;;;;;;;;;;;8.55;74.61;102989.16;5047679;28;20569;-60
2021/12/19 13:54:12;;;;;;;;;;;;;;;8.55;75.15;102984.47;5048413;28;19928;-60
2021/12/19 13:56:37;;;;;;;;;;;;;;;8.53;75.02;102985.75;5050643;28;19928;-60
2021/12/19 13:59:04;;;;;;;;;;;;;;;8.53;74.78;102988.50;5051541;28;19921;-60